Time;durP1;ratioP1;P1;durP2;ratioP2;P2;SDS_P1;SDS_P2;PMS_P1;PMS_P2;Temp;Humidity;BMP_temperature;BMP_pressure;BME280_temperature;BME280_humidity;BME280_pressure;Samples;Min_cycle;Max_cycle;Signal;HPM_P1;HPM_P2
2022/05/09 00:04:50;;;;;;;11.30;1.88;;;12.10;66.00;;;;;;5039940;28;20051;-80
2022/05/09 00:10:22;;;;;;;12.87;1.93;;;12.00;66.30;;;;;;5055044;28;20056;-80
2022/05/09 00:12:50;;;;;;;9.27;2.10;;;12.00;66.20;;;;;;5054882;28;20062;-80
2022/05/09 00:15:18;;;;;;;8.48;2.13;;;11.90;66.30;;;;;;5054913;28;20030;-79
2022/05/09 00:17:46;;;;;;;8.27;1.67;;;11.90;66.60;;;;;;5036772;28;20067;-81
2022/05/09 00:20:14;;;;;;;12.73;2.10;;;11.90;66.90;;;;;;5055114;28;20104;-81
2022/05/09 00:23:06;;;;;;;9.07;1.50;;;11.90;67.10;;;;;;5037162;28;20117;-81
2022/05/09 00:25:51;;;;;;;8.90;1.33;;;11.90;67.60;;;;;;5037021;28;20136;-82
2022/05/09 00:28:35;;;;;;;;;;;11.80;67.40;;;;;;5055471;28;20065;-81
2022/05/09 00:31:19;;;;;;;5.97;1.50;;;11.80;67.40;;;;;;5054847;28;19912;-83
2022/05/09 00:33:45;;;;;;;;;;;11.70;67.00;;;;;;5037734;28;20082;-84
2022/05/09 00:36:30;;;;;;;9.93;1.90;;;11.70;67.80;;;;;;5037145;28;19996;-84
2022/05/09 00:39:15;;;;;;;9.95;1.88;;;11.70;67.20;;;;;;5054418;28;20033;-84
2022/05/09 00:47:29;;;;;;;12.13;2.13;;;11.60;67.80;;;;;;5054674;28;20048;-83
2022/05/09 00:50:00;;;;;;;10.27;2.20;;;11.60;68.00;;;;;;5054470;28;20033;-82
2022/05/09 00:55:40;;;;;;;11.87;2.03;;;11.50;68.70;;;;;;5054105;28;20032;-82
2022/05/09 01:01:13;;;;;;;11.73;1.98;;;11.50;68.90;;;;;;5054277;28;20040;-80
2022/05/09 01:04:19;;;;;;;11.37;1.93;;;11.40;68.80;;;;;;5054312;28;20462;-81
2022/05/09 01:07:05;;;;;;;8.17;1.80;;;11.40;68.90;;;;;;5036743;28;20064;-80
2022/05/09 01:09:30;;;;;;;;;;;11.40;69.00;;;;;;5019565;28;20481;-80
2022/05/09 01:17:24;;;;;;;12.27;2.05;;;11.30;69.40;;;;;;5038726;28;20044;-81
2022/05/09 01:20:13;;;;;;;12.13;2.30;;;11.30;69.40;;;;;;5019354;28;20025;-81
2022/05/09 01:25:44;;;;;;;11.60;1.50;;;11.30;69.60;;;;;;5053670;28;20083;-81
2022/05/09 01:28:11;;;;;;;;;;;11.20;69.90;;;;;;5054288;28;20029;-81
2022/05/09 01:31:14;;;;;;;15.00;2.17;;;11.20;70.00;;;;;;5036041;28;20414;-82
2022/05/09 01:33:51;;;;;;;15.17;2.23;;;11.10;69.80;;;;;;5035997;28;20092;-81
2022/05/09 01:42:08;;;;;;;11.05;2.08;;;11.10;70.10;;;;;;5054026;28;20412;-82
2022/05/09 01:44:34;;;;;;;10.90;2.37;;;11.10;70.70;;;;;;5035555;28;20446;-82
2022/05/09 01:50:04;;;;;;;7.73;2.03;;;11.00;70.70;;;;;;5053476;28;20036;-82
2022/05/09 01:52:29;;;;;;;8.93;2.00;;;11.00;70.50;;;;;;5035565;28;20048;-81
2022/05/09 01:57:57;;;;;;;8.63;1.75;;;11.00;70.70;;;;;;5053878;28;20068;-83
2022/05/09 02:00:43;;;;;;;10.18;2.08;;;11.00;70.60;;;;;;5038322;28;20438;-82
2022/05/09 02:03:08;;;;;;;10.33;1.97;;;11.00;70.90;;;;;;5021858;28;20393;-81
2022/05/09 02:05:34;;;;;;;10.17;2.20;;;10.90;70.90;;;;;;5019183;28;20045;-82
2022/05/09 02:08:18;;;;;;;9.80;1.93;;;10.90;70.90;;;;;;5018872;28;20041;-81
2022/05/09 02:10:44;;;;;;;13.70;3.88;;;10.90;71.10;;;;;;5035788;28;20028;-81
2022/05/09 02:13:28;;;;;;;10.80;2.40;;;10.90;71.50;;;;;;5036210;28;20037;-82
2022/05/09 02:15:53;;;;;;;13.00;2.22;;;10.80;71.20;;;;;;5021852;28;20036;-81
2022/05/09 02:18:19;;;;;;;11.70;1.70;;;10.90;71.30;;;;;;5036638;28;20037;-81
2022/05/09 02:21:03;;;;;;;8.33;2.10;;;10.80;71.40;;;;;;5036915;28;20041;-82
2022/05/09 02:23:48;;;;;;;8.70;1.90;;;10.80;71.50;;;;;;5043518;28;20119;-81
2022/05/09 02:29:55;;;;;;;8.43;2.00;;;10.80;71.70;;;;;;5048140;28;20064;-83
2022/05/09 02:32:21;;;;;;;10.77;2.53;;;10.70;71.80;;;;;;5056944;28;20017;-82
2022/05/09 02:34:46;;;;;;;10.07;2.07;;;10.80;71.80;;;;;;5042585;28;20051;-79
2022/05/09 02:37:31;;;;;;;8.77;2.40;;;10.70;72.10;;;;;;5030202;28;20033;-81
2022/05/09 02:42:59;;;;;;;7.10;2.00;;;10.70;72.60;;;;;;5062250;28;19943;-80
2022/05/09 02:48:30;;;;;;;8.87;2.13;;;10.60;72.00;;;;;;5058376;28;20095;-80
2022/05/09 02:53:58;;;;;;;10.35;2.55;;;10.60;72.70;;;;;;5057727;28;20111;-80
2022/05/09 02:56:25;;;;;;;9.67;2.00;;;10.60;72.70;;;;;;5022536;28;20032;-80
2022/05/09 02:58:51;;;;;;;7.60;2.20;;;10.50;72.60;;;;;;5039074;28;20078;-81
2022/05/09 03:01:35;;;;;;;11.27;2.53;;;10.50;72.90;;;;;;5022883;28;20025;-81
2022/05/09 03:07:04;;;;;;;7.65;2.25;;;10.50;73.00;;;;;;5042182;28;19916;-81
2022/05/09 03:09:49;;;;;;;8.90;2.20;;;10.40;72.80;;;;;;5038832;28;20033;-80
2022/05/09 03:15:01;;;;;;;8.90;2.27;;;10.40;73.00;;;;;;5056638;28;20055;-80
2022/05/09 03:20:11;;;;;;;;;;;10.40;73.10;;;;;;5041368;28;20040;-81
2022/05/09 03:22:56;;;;;;;11.43;2.23;;;10.30;73.30;;;;;;5038372;28;19908;-81
2022/05/09 03:25:22;;;;;;;9.67;2.23;;;10.30;73.10;;;;;;5055768;28;20135;-81
2022/05/09 03:31:29;;;;;;;9.37;2.20;;;10.20;73.30;;;;;;5055642;28;20032;-80
2022/05/09 03:42:45;;;;;;;11.27;2.67;;;10.10;73.80;;;;;;5034280;28;20560;-81
2022/05/09 03:45:11;;;;;;;9.67;2.57;;;10.10;73.90;;;;;;5034558;28;20041;-81
2022/05/09 03:47:56;;;;;;;8.13;2.67;;;10.10;74.10;;;;;;5034547;28;20033;-81
2022/05/09 03:53:44;;;;;;;17.80;4.07;;;10.10;74.60;;;;;;5035952;28;20045;-81
2022/05/09 03:56:10;;;;;;;;;;;10.00;74.40;;;;;;5034790;28;20117;-81
2022/05/09 03:58:55;;;;;;;5.73;2.03;;;10.00;74.60;;;;;;5035217;28;19932;-81
2022/05/09 04:04:42;;;;;;;10.17;2.70;;;10.00;74.70;;;;;;5035315;28;20104;-81
2022/05/09 04:07:08;;;;;;;7.67;2.47;;;9.90;74.70;;;;;;5034695;28;20540;-80
2022/05/09 04:19:02;;;;;;;10.40;2.10;;;10.00;75.40;;;;;;5030788;28;20039;-79
2022/05/09 04:21:46;;;;;;;16.03;3.70;;;9.90;75.40;;;;;;5033677;28;20092;-79
2022/05/09 04:24:12;;;;;;;7.55;2.22;;;9.90;75.30;;;;;;5030356;28;20050;-79
2022/05/09 04:26:56;;;;;;;14.23;3.17;;;9.90;75.30;;;;;;5031848;28;20030;-79
2022/05/09 04:30:00;;;;;;;9.97;2.70;;;9.90;75.40;;;;;;5033080;28;20033;-80
2022/05/09 04:32:25;;;;;;;8.90;2.20;;;9.90;75.50;;;;;;5028764;28;20496;-81
2022/05/09 04:34:51;;;;;;;13.13;3.33;;;9.90;75.60;;;;;;5030299;28;20044;-81
2022/05/09 04:43:36;;;;;;;10.67;2.83;;;10.00;75.80;;;;;;5034194;28;20465;-80
2022/05/09 04:46:02;;;;;;;12.13;3.73;;;10.00;75.80;;;;;;5016033;28;20048;-80
2022/05/09 04:54:16;;;;;;;10.90;2.37;;;10.00;75.90;;;;;;5034834;28;20320;-80
2022/05/09 04:56:41;;;;;;;9.40;2.70;;;10.10;75.60;;;;;;5016217;28;20427;-81
2022/05/09 05:01:51;;;;;;;9.90;2.08;;;10.10;75.90;;;;;;5019390;28;20076;-80
2022/05/09 05:04:54;;;;;;;12.17;2.77;;;10.10;75.90;;;;;;5012247;28;20132;-80
2022/05/09 05:13:08;;;;;;;12.43;3.00;;;10.20;75.80;;;;;;5033821;28;20045;-82
2022/05/09 05:15:33;;;;;;;11.82;2.83;;;10.30;75.90;;;;;;5002385;28;20116;-80
2022/05/09 05:23:28;;;;;;;13.13;3.08;;;10.40;76.00;;;;;;5035944;28;19963;-80
2022/05/09 05:26:13;;;;;;;13.80;2.87;;;10.40;75.70;;;;;;5035447;28;20038;-80
2022/05/09 05:28:38;;;;;;;8.23;3.03;;;10.40;75.90;;;;;;5003769;28;20059;-80
2022/05/09 05:31:30;;;;;;;9.13;3.00;;;10.50;76.00;;;;;;4998390;28;20430;-80
2022/05/09 05:36:40;;;;;;;13.73;3.47;;;10.60;76.20;;;;;;5017526;28;20048;-79
2022/05/09 05:39:07;;;;;;;8.83;3.03;;;10.60;76.10;;;;;;5030120;28;20056;-80
2022/05/09 05:47:07;;;;;;;13.87;2.70;;;10.80;76.00;;;;;;5053316;28;20297;-81
2022/05/09 05:49:52;;;;;;;11.50;3.23;;;10.80;75.80;;;;;;5031256;28;20656;-80
2022/05/09 05:52:18;;;;;;;11.63;2.93;;;10.90;75.90;;;;;;5028210;28;20039;-80
2022/05/09 05:55:04;;;;;;;8.83;3.07;;;10.90;75.90;;;;;;5032743;28;20033;-80
2022/05/09 05:57:49;;;;;;;12.73;3.00;;;11.00;75.90;;;;;;5030469;28;20029;-79
2022/05/09 06:03:01;;;;;;;11.85;2.90;;;11.10;75.60;;;;;;5051175;28;20036;-79
2022/05/09 06:11:52;;;;;;;9.38;2.60;;;11.20;75.30;;;;;;5043832;28;20075;-81
2022/05/09 06:14:18;;;;;;;12.98;3.00;;;11.30;75.10;;;;;;5038787;28;20430;-79
2022/05/09 06:16:45;;;;;;;10.52;2.72;;;11.40;75.10;;;;;;5021764;28;20386;-80
2022/05/09 06:19:11;;;;;;;12.95;3.30;;;11.40;75.10;;;;;;5005387;28;20102;-80
2022/05/09 06:21:37;;;;;;;13.88;2.70;;;11.50;75.00;;;;;;5005314;28;20495;-80
2022/05/09 06:27:24;;;;;;;12.32;2.88;;;11.50;74.90;;;;;;5027555;28;20507;-80
2022/05/09 06:29:50;;;;;;;13.35;2.83;;;11.60;74.90;;;;;;5021615;28;20116;-81
2022/05/09 06:32:34;;;;;;;15.38;3.00;;;11.70;74.80;;;;;;5021507;28;20105;-81
2022/05/09 06:35:23;;;;;;;;;;;11.70;74.80;;;;;;5005786;28;20093;-81
2022/05/09 06:38:00;;;;;;;12.38;2.10;;;11.80;74.80;;;;;;5047160;28;19909;-81
2022/05/09 06:40:28;;;;;;;16.27;3.03;;;11.80;75.10;;;;;;5021639;28;20116;-81
2022/05/09 06:43:13;;;;;;;12.95;3.22;;;11.80;74.40;;;;;;5020152;28;20049;-77
2022/05/09 06:54:10;;;;;;;;;;;12.10;74.20;;;;;;5028152;28;20071;-79
2022/05/09 06:56:54;;;;;;;8.90;3.22;;;12.10;74.00;;;;;;5040953;28;19913;-80
2022/05/09 06:59:20;;;;;;;12.13;2.90;;;12.20;73.90;;;;;;5048221;28;20037;-80
2022/05/09 07:02:04;;;;;;;11.27;3.15;;;12.20;73.80;;;;;;5021195;28;20520;-80
2022/05/09 07:04:48;;;;;;;11.55;2.70;;;12.30;73.70;;;;;;5028209;28;20041;-80
2022/05/09 07:07:34;;;;;;;14.52;3.53;;;12.30;73.90;;;;;;5026218;28;20033;-80
2022/05/09 07:10:18;;;;;;;8.82;2.80;;;12.40;73.60;;;;;;5044009;28;20036;-82
2022/05/09 07:13:04;;;;;;;19.10;3.05;;;12.50;73.50;;;;;;5035089;28;20053;-83
2022/05/09 07:21:37;;;;;;;11.38;2.65;;;12.70;73.00;;;;;;5075759;28;20036;-82
2022/05/09 07:24:21;;;;;;;12.73;3.47;;;12.70;72.90;;;;;;5077656;28;20029;-82
2022/05/09 07:26:47;;;;;;;11.70;2.83;;;12.80;72.70;;;;;;5045642;28;20049;-81
2022/05/09 07:29:13;;;;;;;9.10;2.70;;;12.80;72.60;;;;;;5044557;28;20025;-81
2022/05/09 07:31:38;;;;;;;11.48;2.60;;;12.90;72.60;;;;;;5040886;28;20037;-80
2022/05/09 07:34:04;;;;;;;10.27;2.50;;;13.00;72.50;;;;;;5039699;28;20389;-81
2022/05/09 07:39:58;;;;;;;9.75;2.50;;;13.10;72.30;;;;;;5051119;28;20511;-86
2022/05/09 07:42:44;;;;;;;10.95;2.50;;;13.10;72.10;;;;;;5047482;28;20042;-82
2022/05/09 07:48:16;;;;;;;9.13;2.15;;;13.30;71.60;;;;;;5040553;28;20040;-81
2022/05/09 07:51:01;;;;;;;13.60;3.15;;;13.40;71.40;;;;;;5011473;28;20040;-80
2022/05/09 07:53:46;;;;;;;9.10;2.72;;;13.40;71.20;;;;;;5029062;28;20116;-81
2022/05/09 07:56:11;;;;;;;9.68;2.38;;;13.50;71.10;;;;;;5017523;28;20490;-81
2022/05/09 07:58:37;;;;;;;11.43;2.78;;;13.60;71.00;;;;;;5017735;28;20033;-82
2022/05/09 08:01:04;;;;;;;11.52;2.75;;;13.60;70.70;;;;;;5001117;28;20320;-82
2022/05/09 08:03:52;;;;;;;13.45;2.65;;;13.70;70.60;;;;;;5017435;28;20026;-85
2022/05/09 08:06:55;;;;;;;16.20;3.95;;;13.80;70.60;;;;;;5017044;28;20493;-84
2022/05/09 08:09:21;;;;;;;8.85;2.53;;;13.80;70.40;;;;;;5034880;28;20075;-80
2022/05/09 08:11:49;;;;;;;13.07;3.17;;;13.90;70.20;;;;;;5002525;28;20037;-81
2022/05/09 08:14:15;;;;;;;7.07;2.65;;;14.00;70.00;;;;;;4997355;28;20035;-82
2022/05/09 08:16:41;;;;;;;11.40;2.50;;;14.00;69.90;;;;;;5016617;28;20373;-81
2022/05/09 08:19:25;;;;;;;15.48;2.65;;;14.10;69.60;;;;;;5016823;28;20494;-81
2022/05/09 08:22:09;;;;;;;10.13;2.80;;;14.20;69.40;;;;;;5002990;28;20120;-82
2022/05/09 08:27:38;;;;;;;9.18;2.55;;;14.30;69.10;;;;;;5019654;28;20049;-80
2022/05/09 08:30:04;;;;;;;;;;;14.40;68.60;;;;;;5032715;28;20038;-80
2022/05/09 08:32:30;;;;;;;13.18;2.22;;;14.50;68.10;;;;;;5033284;28;19912;-80
2022/05/09 08:35:15;;;;;;;10.32;2.20;;;14.50;67.80;;;;;;5032953;28;20494;-80
2022/05/09 08:37:43;;;;;;;9.38;2.25;;;14.60;67.50;;;;;;5034205;28;20033;-80
2022/05/09 08:40:27;;;;;;;13.18;2.75;;;14.70;67.30;;;;;;5033940;28;20159;-80
2022/05/09 08:43:01;;;;;;;;;;;14.80;66.90;;;;;;5033276;28;20053;-80
2022/05/09 08:45:33;;;;;;;;;;;14.90;66.70;;;;;;5033416;28;19920;-79
2022/05/09 08:48:17;;;;;;;;;;;14.90;66.60;;;;;;5032759;28;19936;-80
2022/05/09 08:51:05;;;;;;;;;;;15.00;66.70;;;;;;5033572;28;19967;-80
2022/05/09 08:53:40;;;;;;;;;;;15.10;66.70;;;;;;5033398;28;19905;-79
2022/05/09 09:01:49;;;;;;;;;;;15.40;66.70;;;;;;5034341;28;20409;-79
2022/05/09 09:07:05;;;;;;;;;;;15.60;66.70;;;;;;5046615;28;20393;-80
2022/05/09 09:09:48;;;;;;;;;;;15.70;65.80;;;;;;5036162;28;19995;-81
2022/05/09 09:15:16;;;;;;;;;;;15.90;65.70;;;;;;5073947;28;19916;-80
2022/05/09 09:17:51;;;;;;;;;;;16.10;65.60;;;;;;5056066;28;20257;-79
2022/05/09 09:20:22;;;;;;;;;;;16.20;65.20;;;;;;5044141;28;20278;-78
2022/05/09 09:23:07;;;;;;;;;;;16.40;64.20;;;;;;5033978;28;19912;-81
2022/05/09 09:25:51;;;;;;;;;;;16.50;64.10;;;;;;5032848;28;19917;-80
2022/05/09 09:31:05;;;;;;;;;;;16.70;63.20;;;;;;5033825;28;19911;-84
2022/05/09 09:33:33;;;;;;;;;;;16.80;62.70;;;;;;5032692;28;19905;-81
2022/05/09 09:36:11;;;;;;;;;;;16.90;62.70;;;;;;5020029;28;19917;-81
2022/05/09 09:38:47;;;;;;;;;;;17.00;62.70;;;;;;5035535;28;20444;-84
2022/05/09 09:47:19;;;;;;;;;;;17.40;61.50;;;;;;5054843;28;20009;-85
2022/05/09 09:49:47;;;;;;;;;;;17.50;61.50;;;;;;5053461;28;19905;-80
2022/05/09 09:52:32;;;;;;;;;;;17.60;61.20;;;;;;5053782;28;19912;-82
2022/05/09 09:57:46;;;;;;;;;;;17.80;59.00;;;;;;5054196;28;19912;-82
2022/05/09 10:05:59;;;;;;;;;;;18.20;58.90;;;;;;5059042;28;19962;-78
2022/05/09 10:08:25;;;;;;;;;;;18.40;58.70;;;;;;5054599;28;19912;-79
2022/05/09 10:16:51;;;;;;;;;;;18.70;57.70;;;;;;5035044;28;20380;-82
2022/05/09 10:19:37;;;;;;;;;;;18.80;58.00;;;;;;5015369;28;19999;-82
2022/05/09 10:25:20;;;;;;;;;;;18.90;58.60;;;;;;5033257;28;20098;-81
2022/05/09 10:34:00;;;;;;;;;;;19.40;58.70;;;;;;5033839;28;19912;-82
2022/05/09 10:36:45;;;;;;;;;;;19.50;58.80;;;;;;5031237;28;19974;-82
2022/05/09 10:42:03;;;;;;;;;;;19.90;58.80;;;;;;5033301;28;19924;-82
2022/05/09 10:44:43;;;;;;;;;;;20.20;58.70;;;;;;5033226;28;19959;-83
2022/05/09 10:47:29;;;;;;;;;;;20.40;58.20;;;;;;5032037;28;20254;-83
2022/05/09 10:50:14;;;;;;;;;;;20.60;58.10;;;;;;5030363;28;19905;-82
2022/05/09 10:55:46;;;;;;;;;;;21.00;58.10;;;;;;5037522;28;19927;-83
2022/05/09 10:58:36;;;;;;;;;;;21.30;58.00;;;;;;5035269;28;19909;-83
2022/05/09 11:01:15;;;;;;;;;;;21.40;57.90;;;;;;5034910;28;19905;-83
2022/05/09 11:06:43;;;;;;;;;;;21.90;57.60;;;;;;5035157;28;19947;-83
2022/05/09 11:09:25;;;;;;;;;;;22.10;57.40;;;;;;5034048;28;20404;-82
2022/05/09 11:12:09;;;;;;;;;;;22.30;57.00;;;;;;5035049;28;19962;-82
2022/05/09 11:14:50;;;;;;;;;;;22.50;56.80;;;;;;5035363;28;20361;-82
2022/05/09 11:17:32;;;;;;;;;;;22.80;56.70;;;;;;5035447;28;19905;-84
2022/05/09 11:20:16;;;;;;;;;;;23.00;56.60;;;;;;5034352;28;19905;-81
2022/05/09 11:23:00;;;;;;;;;;;23.30;56.40;;;;;;5034931;28;19913;-82
2022/05/09 11:25:26;;;;;;;;;;;23.60;55.80;;;;;;5037185;28;19913;-83
2022/05/09 11:31:14;;;;;;;;;;;24.10;55.30;;;;;;5065354;28;20013;-82
2022/05/09 11:33:45;;;;;;;;;;;24.30;55.20;;;;;;5057932;28;19911;-84
2022/05/09 11:36:29;;;;;;;;;;;24.60;54.80;;;;;;5039819;28;20369;-82
2022/05/09 11:38:58;;;;;;;;;;;24.80;54.00;;;;;;5035945;28;20423;-82
2022/05/09 11:41:42;;;;;;;;;;;25.00;53.40;;;;;;5055369;28;19905;-81
2022/05/09 11:56:10;;;;;;;;;;;26.00;52.10;;;;;;5056816;28;19962;-82
2022/05/09 11:58:39;;;;;;;;;;;26.30;52.10;;;;;;5055776;28;20281;-82
2022/05/09 12:01:05;;;;;;;;;;;26.50;52.10;;;;;;5055275;28;19911;-82
2022/05/09 12:06:43;;;;;;;;;;;27.00;51.80;;;;;;5058590;28;20368;-84
2022/05/09 12:09:27;;;;;;;;;;;27.40;51.50;;;;;;5038204;28;20008;-82
2022/05/09 12:11:53;;;;;;;;;;;27.70;50.90;;;;;;5034257;28;19909;-83
2022/05/09 12:14:37;;;;;;;;;;;28.00;50.90;;;;;;5017558;28;19917;-80
2022/05/09 12:20:26;;;;;;;;;;;28.40;50.60;;;;;;5036724;28;20675;-81
2022/05/09 12:25:57;;;;;;;;;;;29.00;50.20;;;;;;5060749;28;20007;-83
2022/05/09 12:28:43;;;;;;;;;;;29.30;50.00;;;;;;5063647;28;19909;-84
2022/05/09 12:34:13;;;;;;;;;;;29.80;49.30;;;;;;5039925;28;19970;-84
2022/05/09 12:36:38;;;;;;;;;;;30.00;48.90;;;;;;5040000;28;19948;-83
2022/05/09 12:44:54;;;;;;;;;;;30.50;47.30;;;;;;5043137;28;20008;-86
2022/05/09 12:47:22;;;;;;;;;;;30.70;47.10;;;;;;5021009;28;20459;-82
2022/05/09 12:52:58;;;;;;;;;;;31.00;46.90;;;;;;5044284;28;20382;-85
2022/05/09 12:55:55;;;;;;;;;;;31.10;46.80;;;;;;5038019;28;19909;-84
2022/05/09 12:58:21;;;;;;;;;;;31.30;46.80;;;;;;5037388;28;20379;-84
2022/05/09 13:00:48;;;;;;;;;;;31.40;46.80;;;;;;5060458;28;19943;-85
2022/05/09 13:06:09;;;;;;;;;;;31.70;46.80;;;;;;5043042;28;19928;-83
2022/05/09 13:11:29;;;;;;;;;;;32.10;46.60;;;;;;5055566;28;19927;-84
2022/05/09 13:14:01;;;;;;;;;;;32.40;46.40;;;;;;5054809;28;19905;-83
2022/05/09 13:19:31;;;;;;;;;;;32.70;45.80;;;;;;5054775;28;19915;-83
2022/05/09 13:22:15;;;;;;;;;;;33.00;45.70;;;;;;5047045;28;19908;-82
2022/05/09 13:24:42;;;;;;;;;;;33.20;45.50;;;;;;5073925;28;19916;-83
2022/05/09 13:27:08;;;;;;;;;;;33.40;45.30;;;;;;5055975;28;19915;-82
2022/05/09 13:29:52;;;;;;;;;;;33.60;45.30;;;;;;5056516;28;19904;-83
2022/05/09 13:35:28;;;;;;;;;;;33.90;45.10;;;;;;5074253;28;19958;-83
2022/05/09 13:37:54;;;;;;;;;;;34.10;44.80;;;;;;5055817;28;19934;-83
2022/05/09 13:43:06;;;;;;;;;;;34.20;43.30;;;;;;5071520;28;19923;-82
2022/05/09 13:45:31;;;;;;;;;;;34.30;43.40;;;;;;5056065;28;19912;-83
2022/05/09 13:47:59;;;;;;;;;;;34.30;42.30;;;;;;5039060;28;19908;-82
2022/05/09 13:50:29;;;;;;;;;;;34.20;42.40;;;;;;5076066;28;20348;-84
2022/05/09 13:52:55;;;;;;;;;;;34.30;42.60;;;;;;5052953;28;20352;-85
2022/05/09 13:55:30;;;;;;;;;;;34.40;42.80;;;;;;5032688;28;19905;-86
2022/05/09 14:00:59;;;;;;;;;;;34.60;42.50;;;;;;5034801;28;19932;-83
2022/05/09 14:03:33;;;;;;;;;;;34.80;42.30;;;;;;5017379;28;19905;-85
2022/05/09 14:09:06;;;;;;;;;;;35.10;41.80;;;;;;5064404;28;19915;-85
2022/05/09 14:11:37;;;;;;;;;;;35.20;41.50;;;;;;5041573;28;19912;-83
2022/05/09 14:14:21;;;;;;;;;;;35.20;41.50;;;;;;5035986;28;19912;-85
2022/05/09 14:16:55;;;;;;;;;;;35.40;41.40;;;;;;5029771;28;19960;-86
2022/05/09 14:19:26;;;;;;;;;;;35.50;41.30;;;;;;5047275;28;20361;-86
2022/05/09 14:22:10;;;;;;;;;;;35.60;40.80;;;;;;5035608;28;19905;-86
2022/05/09 14:24:37;;;;;;;;;;;35.60;40.40;;;;;;5035411;28;20011;-86
2022/05/09 14:29:49;;;;;;;;;;;35.50;39.70;;;;;;5051580;28;19996;-88
2022/05/09 14:35:36;;;;;;;;;;;35.40;39.20;;;;;;5070922;28;19970;-81
2022/05/09 14:38:02;;;;;;;;;;;35.40;39.20;;;;;;5061841;28;19912;-83
2022/05/09 14:40:47;;;;;;;;;;;35.40;40.00;;;;;;5056672;28;19905;-83
2022/05/09 14:43:31;;;;;;;;;;;35.60;39.30;;;;;;5038789;28;20007;-83
2022/05/09 14:46:05;;;;;;;;;;;35.70;39.00;;;;;;5038717;28;19971;-83
2022/05/09 14:48:34;;;;;;;;;;;35.80;38.90;;;;;;5041496;28;20001;-83
2022/05/09 14:59:35;;;;;;;;;;;36.10;38.70;;;;;;5022470;28;19955;-83
2022/05/09 15:16:28;;;;;;;;;;;36.40;38.30;;;;;;5037968;28;19912;-84
2022/05/09 15:18:54;;;;;;;;;;;36.50;38.20;;;;;;5035732;28;20409;-83
2022/05/09 15:21:20;;;;;;;;;;;36.50;37.90;;;;;;5018201;28;20408;-84
2022/05/09 15:23:45;;;;;;;;;;;36.40;37.60;;;;;;5035376;28;20381;-87
2022/05/09 15:29:14;;;;;;;;;;;35.80;37.80;;;;;;5038212;28;19911;-83
2022/05/09 15:34:43;;;;;;;;;;;35.10;38.00;;;;;;5058742;28;19951;-82
2022/05/09 15:37:28;;;;;;;;;;;34.80;37.40;;;;;;5038430;28;19995;-81
2022/05/09 15:39:53;;;;;;;;;;;34.40;38.00;;;;;;5057636;28;19912;-84
2022/05/09 15:42:27;;;;;;;;;;;34.10;38.00;;;;;;5038014;28;19920;-80
2022/05/09 15:44:54;;;;;;;;;;;33.90;38.30;;;;;;5055976;28;19917;-81
2022/05/09 15:47:39;;;;;;;;;;;33.60;38.10;;;;;;5040386;28;19944;-82
2022/05/09 15:53:12;;;;;;;;;;;32.90;38.40;;;;;;5036189;28;19911;-82
2022/05/09 15:55:41;;;;;;;;;;;32.70;38.10;;;;;;5034571;28;19905;-81
2022/05/09 15:58:08;;;;;;;;;;;32.50;38.30;;;;;;5037895;28;19905;-81
2022/05/09 16:00:33;;;;;;;;;;;32.40;38.30;;;;;;5076410;28;20007;-81
2022/05/09 16:03:00;;;;;;;;;;;32.30;38.30;;;;;;5041199;28;20410;-81
2022/05/09 16:05:26;;;;;;;;;;;32.10;38.20;;;;;;5075403;28;19966;-81
2022/05/09 16:13:57;;;;;;;;;;;31.80;38.00;;;;;;5067339;28;19960;-82
2022/05/09 16:16:42;;;;;;;;;;;31.50;38.10;;;;;;5040090;28;19909;-82
2022/05/09 16:19:09;;;;;;;;;;;31.40;38.30;;;;;;5056336;28;19963;-82
2022/05/09 16:21:54;;;;;;;;;;;31.30;38.40;;;;;;5056847;28;19904;-82
2022/05/09 16:24:20;;;;;;;;;;;31.20;38.30;;;;;;5058600;28;19988;-82
2022/05/09 16:27:04;;;;;;;;;;;31.00;38.20;;;;;;5048588;28;20007;-82
2022/05/09 16:32:14;;;;;;;;;;;30.80;38.40;;;;;;5075391;28;19930;-83
2022/05/09 16:34:41;;;;;;;;;;;30.80;38.50;;;;;;5051377;28;19908;-83
2022/05/09 16:40:29;;;;;;;;;;;30.60;38.30;;;;;;5074888;28;20013;-83
2022/05/09 16:42:54;;;;;;;;;;;30.50;38.50;;;;;;5056419;28;19958;-82
2022/05/09 16:48:24;;;;;;;;;;;30.20;38.50;;;;;;5054978;28;20446;-82
2022/05/09 16:51:08;;;;;;;;;;;30.10;38.50;;;;;;5035794;28;19932;-83
2022/05/09 16:56:18;;;;;;;;;;;29.60;38.40;;;;;;5039868;28;19919;-82
2022/05/09 17:06:58;;;;;;;;;;;29.30;39.10;;;;;;5051789;28;19923;-82
2022/05/09 17:15:17;;;;;;;;;;;29.10;39.20;;;;;;5068194;28;19914;-83
2022/05/09 17:20:29;;;;;;;;;;;29.10;39.30;;;;;;5075366;28;19911;-83
2022/05/09 17:22:57;;;;;;;;;;;29.10;39.40;;;;;;5056989;28;20370;-83
2022/05/09 17:25:28;;;;;;;;;;;29.00;39.30;;;;;;5073288;28;20015;-83
2022/05/09 17:31:00;;;;;;;;;;;28.90;39.40;;;;;;5074257;28;19912;-83
2022/05/09 17:41:40;;;;;;;;;;;28.60;39.40;;;;;;5034631;28;19915;-83
2022/05/09 17:44:05;;;;;;;;;;;28.50;39.50;;;;;;5016357;28;19921;-83
2022/05/09 17:46:37;;;;;;;;;;;28.50;39.60;;;;;;5019164;28;19921;-82
2022/05/09 17:49:21;;;;;;;;;;;28.40;39.90;;;;;;5041809;28;19948;-83
2022/05/09 17:51:47;;;;;;;;;;;28.20;39.70;;;;;;5044110;28;19941;-83
2022/05/09 17:54:35;;;;;;;;;;;28.10;39.70;;;;;;5021108;28;19916;-83
2022/05/09 17:57:19;;;;;;;;;;;28.00;39.80;;;;;;5036026;28;19927;-83
2022/05/09 18:02:29;;;;;;;;;;;27.80;40.00;;;;;;5045631;28;19912;-84
2022/05/09 18:04:55;;;;;;;;;;;27.60;40.00;;;;;;5043074;28;19917;-84
2022/05/09 18:07:20;;;;;;;;;;;27.50;40.10;;;;;;5019934;28;19953;-84
2022/05/09 18:12:30;;;;;;;;;;;27.30;40.30;;;;;;5035872;28;19959;-83
2022/05/09 18:14:57;;;;;;;;;;;27.20;40.60;;;;;;5033373;28;19909;-83
2022/05/09 18:17:42;;;;;;;;;;;27.10;40.70;;;;;;5034208;28;19905;-82
2022/05/09 18:20:26;;;;;;;;;;;26.90;40.70;;;;;;5018897;28;19962;-83
2022/05/09 18:22:54;;;;;;;;;;;26.80;40.80;;;;;;5039874;28;20359;-82
2022/05/09 18:25:38;;;;;;;;;;;26.70;41.00;;;;;;5056657;28;19970;-82
2022/05/09 18:28:05;;;;;;;;;;;26.50;41.00;;;;;;5034299;28;20334;-82
2022/05/09 18:30:32;;;;;;;;;;;26.50;41.20;;;;;;5034486;28;20296;-82
2022/05/09 18:38:30;;;;;;;;;;;26.10;42.00;;;;;;5041093;28;19916;-83
2022/05/09 18:41:15;;;;;;;;;;;26.00;42.20;;;;;;5021042;28;20339;-83
2022/05/09 18:43:43;;;;;;;;;;;25.80;42.30;;;;;;5051347;28;19921;-84
2022/05/09 18:46:09;;;;;;;;;;;25.70;42.60;;;;;;5006282;28;19921;-83
2022/05/09 18:48:35;;;;;;;;;;;25.50;42.60;;;;;;5030679;28;19905;-83
2022/05/09 18:54:10;;;;;;;;;;;25.30;43.10;;;;;;5062809;28;19919;-83
2022/05/09 18:59:20;;;;;;;;;;;25.00;43.70;;;;;;5051651;28;19916;-82
2022/05/09 19:01:51;;;;;;;;;;;24.90;44.90;;;;;;5033816;28;19920;-83
2022/05/09 19:04:35;;;;;;;;;;;24.70;44.50;;;;;;5011343;28;19913;-86
2022/05/09 19:07:02;;;;;;;;;;;24.50;44.40;;;;;;5034263;28;19986;-87
2022/05/09 19:09:30;;;;;;;;;;;24.30;44.70;;;;;;5054511;28;19905;-86
2022/05/09 19:11:56;;;;;;;;;;;24.00;44.80;;;;;;5034353;28;19913;-85
2022/05/09 19:14:42;;;;;;;;;;;23.90;45.20;;;;;;5034233;28;19908;-87
2022/05/09 19:17:26;;;;;;;;;;;23.70;45.40;;;;;;5056403;28;19905;-87
2022/05/09 19:20:10;;;;;;;;;;;23.60;45.70;;;;;;5038571;28;19926;-88
2022/05/09 19:22:36;;;;;;;;;;;23.50;46.30;;;;;;5039105;28;19944;-88
2022/05/09 19:25:01;;;;;;;;;;;23.30;46.50;;;;;;5022068;28;19982;-83
2022/05/09 19:27:28;;;;;;;;;;;23.20;46.70;;;;;;5021398;28;20391;-82
2022/05/09 19:30:12;;;;;;;;;;;23.10;47.20;;;;;;5054683;28;19904;-81
2022/05/09 19:32:40;;;;;;;;;;;23.00;48.20;;;;;;5038412;28;19912;-82
2022/05/09 19:35:24;;;;;;;;;;;22.80;47.80;;;;;;5038528;28;19908;-82
2022/05/09 19:38:08;;;;;;;;;;;22.60;48.50;;;;;;5038559;28;19911;-82
2022/05/09 19:43:29;;;;;;;;;;;22.30;49.20;;;;;;5057024;28;20315;-82
2022/05/09 19:45:59;;;;;;;;;;;22.10;49.00;;;;;;5056005;28;20071;-82
2022/05/09 19:48:26;;;;;;;;;;;22.00;49.00;;;;;;5055958;28;20413;-82
2022/05/09 19:51:10;;;;;;;;;;;21.80;49.60;;;;;;5055952;28;19955;-82
2022/05/09 19:56:20;;;;;;;;;;;21.70;49.70;;;;;;5056846;28;19915;-81
2022/05/09 19:58:45;;;;;;;;;;;21.60;49.90;;;;;;5056055;28;20281;-81
2022/05/09 20:01:11;;;;;;;;;;;21.50;50.80;;;;;;5057008;28;20352;-82
2022/05/09 20:09:07;;;;;;;;;;;21.40;51.20;;;;;;5067459;28;19954;-81
2022/05/09 20:11:32;;;;;;;;;;;21.30;51.50;;;;;;5037299;28;19904;-84
2022/05/09 20:13:59;;;;;;;;;;;21.20;51.30;;;;;;5034600;28;19909;-79
2022/05/09 20:19:12;;;;;;;;;;;21.00;52.20;;;;;;5075372;28;19911;-80
2022/05/09 20:24:22;;;;;;;;;;;20.90;53.60;;;;;;5073300;28;19954;-79
2022/05/09 20:29:57;;;;;;;;;;;20.80;52.80;;;;;;5074541;28;19934;-79
2022/05/09 20:32:26;;;;;;;;;;;20.70;53.10;;;;;;5071791;28;19914;-80
2022/05/09 20:34:52;;;;;;;;;;;20.60;53.10;;;;;;5070792;28;20016;-79
2022/05/09 20:37:23;;;;;;;;;;;20.50;53.50;;;;;;5072621;28;19995;-78
2022/05/09 20:39:51;;;;;;;;;;;20.50;52.90;;;;;;5054405;28;20313;-81